sensor_id;sensor_type;location;lat;lon;timestamp;pressure;altitude;pressure_sealevel;temperature;humidity
7586;BME280;12459;42.646;23.292;2023-01-13T00:13:55;93973.69;;;9.24;100.00
7586;BME280;12459;42.646;23.292;2023-01-13T00:28:57;93965.66;;;9.24;100.00
7586;BME280;12459;42.646;23.292;2023-01-13T00:59:04;93948.88;;;9.20;100.00
7586;BME280;12459;42.646;23.292;2023-01-13T01:14:06;93943.53;;;9.20;100.00
7586;BME280;12459;42.646;23.292;2023-01-13T01:29:10;93935.13;;;9.18;100.00
7586;BME280;12459;42.646;23.292;2023-01-13T01:59:32;93920.59;;;9.19;100.00
7586;BME280;12459;42.646;23.292;2023-01-13T02:14:35;93924.44;;;9.18;100.00
7586;BME280;12459;42.646;23.292;2023-01-13T02:45:18;93920.22;;;9.17;100.00
7586;BME280;12459;42.646;23.292;2023-01-13T03:00:23;93916.03;;;9.16;100.00
7586;BME280;12459;42.646;23.292;2023-01-13T03:30:47;93920.63;;;9.12;100.00
7586;BME280;12459;42.646;23.292;2023-01-13T03:45:53;93924.44;;;9.11;100.00
7586;BME280;12459;42.646;23.292;2023-01-13T04:00:57;93922.91;;;9.10;100.00
7586;BME280;12459;42.646;23.292;2023-01-13T04:16:00;93929.78;;;9.11;100.00
7586;BME280;12459;42.646;23.292;2023-01-13T04:31:02;93940.84;;;9.09;100.00
7586;BME280;12459;42.646;23.292;2023-01-13T04:46:04;93955.00;;;9.10;100.00
7586;BME280;12459;42.646;23.292;2023-01-13T05:01:06;93949.66;;;9.10;100.00
7586;BME280;12459;42.646;23.292;2023-01-13T05:16:08;93953.47;;;9.09;100.00
7586;BME280;12459;42.646;23.292;2023-01-13T05:31:29;93969.88;;;9.11;100.00
7586;BME280;12459;42.646;23.292;2023-01-13T05:46:30;93958.81;;;9.09;100.00
7586;BME280;12459;42.646;23.292;2023-01-13T06:01:32;93972.19;;;9.09;100.00
7586;BME280;12459;42.646;23.292;2023-01-13T06:16:34;93982.50;;;9.10;100.00
7586;BME280;12459;42.646;23.292;2023-01-13T06:31:36;93989.75;;;9.10;100.00
7586;BME280;12459;42.646;23.292;2023-01-13T06:46:39;93997.75;;;9.10;100.00
7586;BME280;12459;42.646;23.292;2023-01-13T07:01:41;93997.00;;;9.09;100.00
7586;BME280;12459;42.646;23.292;2023-01-13T07:16:42;93993.94;;;9.11;100.00
7586;BME280;12459;42.646;23.292;2023-01-13T07:31:44;93986.69;;;9.11;100.00
7586;BME280;12459;42.646;23.292;2023-01-13T07:46:50;93982.47;;;9.14;100.00
7586;BME280;12459;42.646;23.292;2023-01-13T08:01:51;94000.81;;;9.19;100.00
7586;BME280;12459;42.646;23.292;2023-01-13T08:16:53;94002.72;;;9.22;100.00
7586;BME280;12459;42.646;23.292;2023-01-13T08:31:55;94000.81;;;9.29;100.00
7586;BME280;12459;42.646;23.292;2023-01-13T08:46:57;93997.00;;;9.41;100.00
7586;BME280;12459;42.646;23.292;2023-01-13T09:01:59;93996.22;;;9.51;100.00
7586;BME280;12459;42.646;23.292;2023-01-13T09:17:01;93988.19;;;9.55;100.00
7586;BME280;12459;42.646;23.292;2023-01-13T09:32:03;93994.66;;;9.57;100.00
7586;BME280;12459;42.646;23.292;2023-01-13T09:47:06;93989.69;;;9.59;100.00
7586;BME280;12459;42.646;23.292;2023-01-13T10:17:27;93964.84;;;9.63;100.00
7586;BME280;12459;42.646;23.292;2023-01-13T10:32:32;93951.09;;;9.60;100.00
7586;BME280;12459;42.646;23.292;2023-01-13T10:47:35;93943.06;;;9.60;100.00
7586;BME280;12459;42.646;23.292;2023-01-13T11:02:37;93939.63;;;9.60;100.00
7586;BME280;12459;42.646;23.292;2023-01-13T11:48:04;93905.59;;;9.60;100.00
7586;BME280;12459;42.646;23.292;2023-01-13T12:49:02;93900.63;;;9.63;100.00
7586;BME280;12459;42.646;23.292;2023-01-13T13:04:12;93905.22;;;9.62;100.00
7586;BME280;12459;42.646;23.292;2023-01-13T13:34:22;93905.97;;;9.63;100.00
7586;BME280;12459;42.646;23.292;2023-01-13T13:49:44;93922.06;;;9.59;100.00
7586;BME280;12459;42.646;23.292;2023-01-13T14:04:47;93920.19;;;9.49;100.00
7586;BME280;12459;42.646;23.292;2023-01-13T14:20:11;93927.44;;;9.48;100.00
7586;BME280;12459;42.646;23.292;2023-01-13T14:35:14;93932.03;;;9.48;100.00
7586;BME280;12459;42.646;23.292;2023-01-13T14:50:18;93938.91;;;9.49;100.00
7586;BME280;12459;42.646;23.292;2023-01-13T15:20:28;93950.34;;;9.56;100.00
7586;BME280;12459;42.646;23.292;2023-01-13T15:35:29;93960.28;;;9.52;100.00
7586;BME280;12459;42.646;23.292;2023-01-13T15:50:31;93966.78;;;9.58;100.00
7586;BME280;12459;42.646;23.292;2023-01-13T16:05:33;93964.50;;;9.53;100.00
7586;BME280;12459;42.646;23.292;2023-01-13T16:20:35;93966.41;;;9.49;100.00
7586;BME280;12459;42.646;23.292;2023-01-13T16:35:39;93967.94;;;9.54;100.00
7586;BME280;12459;42.646;23.292;2023-01-13T16:51:00;93967.94;;;9.50;100.00
7586;BME280;12459;42.646;23.292;2023-01-13T17:06:02;93961.44;;;9.48;100.00
7586;BME280;12459;42.646;23.292;2023-01-13T17:21:04;93951.91;;;9.47;100.00
7586;BME280;12459;42.646;23.292;2023-01-13T17:36:07;93961.06;;;9.49;100.00
7586;BME280;12459;42.646;23.292;2023-01-13T17:51:14;93968.72;;;9.47;100.00
7586;BME280;12459;42.646;23.292;2023-01-13T18:06:17;93960.69;;;9.47;100.00
7586;BME280;12459;42.646;23.292;2023-01-13T18:21:22;93968.31;;;9.45;100.00
7586;BME280;12459;42.646;23.292;2023-01-13T18:36:43;93973.31;;;9.43;100.00
7586;BME280;12459;42.646;23.292;2023-01-13T18:51:44;93971.78;;;9.42;100.00
7586;BME280;12459;42.646;23.292;2023-01-13T19:06:46;93968.72;;;9.40;100.00
7586;BME280;12459;42.646;23.292;2023-01-13T19:21:51;93956.88;;;9.41;100.00
7586;BME280;12459;42.646;23.292;2023-01-13T19:36:53;93957.63;;;9.42;100.00
7586;BME280;12459;42.646;23.292;2023-01-13T19:51:54;93948.84;;;9.41;100.00
7586;BME280;12459;42.646;23.292;2023-01-13T20:06:56;93951.88;;;9.36;100.00
7586;BME280;12459;42.646;23.292;2023-01-13T20:21:58;93958.78;;;9.37;100.00
7586;BME280;12459;42.646;23.292;2023-01-13T20:36:59;93942.72;;;9.34;100.00
7586;BME280;12459;42.646;23.292;2023-01-13T20:52:01;93929.75;;;9.32;100.00
7586;BME280;12459;42.646;23.292;2023-01-13T21:07:05;93941.59;;;9.31;100.00
7586;BME280;12459;42.646;23.292;2023-01-13T21:22:07;93936.63;;;9.29;100.00
7586;BME280;12459;42.646;23.292;2023-01-13T21:37:08;93942.34;;;9.28;100.00
7586;BME280;12459;42.646;23.292;2023-01-13T21:52:10;93948.84;;;9.27;100.00
7586;BME280;12459;42.646;23.292;2023-01-13T22:07:12;93939.31;;;9.26;100.00
7586;BME280;12459;42.646;23.292;2023-01-13T22:22:14;93939.31;;;9.26;100.00
7586;BME280;12459;42.646;23.292;2023-01-13T22:37:19;93914.88;;;9.24;100.00
7586;BME280;12459;42.646;23.292;2023-01-13T22:52:20;93934.72;;;9.23;100.00
7586;BME280;12459;42.646;23.292;2023-01-13T23:07:22;93919.06;;;9.25;100.00
7586;BME280;12459;42.646;23.292;2023-01-13T23:22:24;93917.53;;;9.24;100.00
7586;BME280;12459;42.646;23.292;2023-01-13T23:37:26;93908.00;;;9.23;100.00
7586;BME280;12459;42.646;23.292;2023-01-13T23:52:27;93904.94;;;9.21;100.00
